createdAt,value
2017-04-27T06:56:35.737Z,83.61
2017-04-27T06:57:16.255Z,83.23
2017-04-27T06:57:56.877Z,83.32
2017-04-27T06:58:37.611Z,83.7
2017-04-27T06:59:18.287Z,83.32
2017-04-27T06:59:58.936Z,83.61
2017-04-27T07:00:39.620Z,83.13
2017-04-27T07:01:20.267Z,83.13
2017-04-27T07:02:00.880Z,82.94
2017-04-27T07:02:41.450Z,83.04
2017-04-27T07:03:22.233Z,83.23
2017-04-27T07:04:03.416Z,83.04
2017-04-27T07:04:43.990Z,83.13
2017-04-27T07:05:24.657Z,82.75
2017-04-27T07:06:05.278Z,82.47
2017-04-27T07:06:45.871Z,82.75
2017-04-27T07:07:27.259Z,82.56
2017-04-27T07:08:08.433Z,82.47
2017-04-27T07:08:48.982Z,82.47
2017-04-27T07:09:29.876Z,82.6
2017-04-27T07:10:11.625Z,82.75
2017-04-27T07:10:52.255Z,82.28
2017-04-27T07:11:32.962Z,82.47
2017-04-27T07:12:13.683Z,82.32
2017-04-27T07:12:54.436Z,82.04
2017-04-27T07:13:35.223Z,82.6
2017-04-27T07:14:15.978Z,82.13
2017-04-27T07:14:56.709Z,82.23
2017-04-27T07:15:37.473Z,82.32
2017-04-27T07:16:18.237Z,82.23
2017-04-27T07:16:58.789Z,82.23
2017-04-27T07:17:40.385Z,82.04
2017-04-27T07:18:21.064Z,82.13
2017-04-27T07:19:01.748Z,81.75
2017-04-27T07:19:42.341Z,81.85
2017-04-27T07:20:22.972Z,81.85
2017-04-27T07:21:03.695Z,82.04
2017-04-27T07:21:44.362Z,81.47
2017-04-27T07:22:25.125Z,81.66
2017-04-27T07:23:05.868Z,81.47
2017-04-27T07:23:46.635Z,81.47
2017-04-27T07:24:27.398Z,81.37
2017-04-27T07:25:08.152Z,81.47
2017-04-27T07:25:48.907Z,81.18
2017-04-27T07:26:29.653Z,81.09
2017-04-27T07:27:10.231Z,80.71
2017-04-27T07:27:50.955Z,81.09
2017-04-27T07:28:31.726Z,80.52
2017-04-27T07:29:12.484Z,80.71
2017-04-27T07:29:53.223Z,80.04
2017-04-27T07:30:33.877Z,79.95
2017-04-27T07:31:14.539Z,80.43
2017-04-27T07:31:55.249Z,80.24
2017-04-27T07:32:35.935Z,80.24
2017-04-27T07:33:16.563Z,79.33
2017-04-27T07:33:58.271Z,79.61
2017-04-27T07:34:39.234Z,79.23
2017-04-27T07:35:19.997Z,78.95
2017-04-27T07:36:00.601Z,78.75
2017-04-27T07:36:41.327Z,79.23
2017-04-27T07:37:22.094Z,78.38
2017-04-27T07:38:03.829Z,78.47
2017-04-27T07:38:44.517Z,78.19
2017-04-27T07:39:25.240Z,78.19
2017-04-27T07:40:06.014Z,77.66
2017-04-27T07:40:46.754Z,77.71
2017-04-27T07:41:27.538Z,77.75
2017-04-27T07:42:08.289Z,77.28
2017-04-27T07:42:48.977Z,77.37
2017-04-27T07:43:29.561Z,76.8
2017-04-27T07:44:10.333Z,76.61
2017-04-27T07:44:52.162Z,76.42
2017-04-27T07:45:32.738Z,76.04
2017-04-27T07:46:13.404Z,75.76
2017-04-27T07:46:54.083Z,75.99
2017-04-27T07:47:34.774Z,75.42
2017-04-27T07:48:15.454Z,74.94
2017-04-27T07:48:56.201Z,74.56
2017-04-27T07:49:36.897Z,74.18
2017-04-27T07:50:17.630Z,73.84
2017-04-27T07:50:58.188Z,73.27
2017-04-27T07:51:39.341Z,72.79
2017-04-27T07:52:20.012Z,72.51
2017-04-27T07:53:00.770Z,72.03
2017-04-27T07:53:41.535Z,71.94
2017-04-27T07:54:22.183Z,71.94
2017-04-27T07:55:02.837Z,71.66
2017-04-27T07:55:43.594Z,71.66
2017-04-27T07:56:24.359Z,71.46
2017-04-27T07:57:04.927Z,71.08
2017-04-27T07:57:45.610Z,71.18
2017-04-27T07:58:26.305Z,70.79
2017-04-27T07:59:07.013Z,70.51
2017-04-27T07:59:47.575Z,69.66
2017-04-27T08:00:28.269Z,69.75
2017-04-27T08:01:09.025Z,69.09
2017-04-27T08:01:49.738Z,69.09
2017-04-27T08:02:30.283Z,68.99
2017-04-27T08:03:10.935Z,68.8
2017-04-27T08:03:51.634Z,68.71
2017-04-27T08:04:32.319Z,68.8
2017-04-27T08:05:12.898Z,68.42
2017-04-27T08:05:53.650Z,68.13
2017-04-27T08:06:34.349Z,68.42
2017-04-27T08:07:15.041Z,68.39
2017-04-27T08:07:55.601Z,68.19
2017-04-27T08:08:36.276Z,68.01
2017-04-27T08:09:16.969Z,68.01
2017-04-27T08:09:57.688Z,68.01
2017-04-27T08:10:38.245Z,67.72
2017-04-27T08:11:18.976Z,67.82
2017-04-27T08:11:59.665Z,67.91
2017-04-27T08:12:40.362Z,67.82
2017-04-27T08:13:20.921Z,68.01
2017-04-27T08:14:01.595Z,67.53
2017-04-27T08:14:42.278Z,67.25
2017-04-27T08:15:22.976Z,67.53
2017-04-27T08:16:03.531Z,67.15
2017-04-27T08:16:44.371Z,67.53
2017-04-27T08:17:25.092Z,66.96
2017-04-27T08:18:05.786Z,66.49
2017-04-27T08:18:46.381Z,66.58
2017-04-27T08:19:27.127Z,66.2
2017-04-27T08:20:07.849Z,66.39
2017-04-27T08:20:48.432Z,66.3
2017-04-27T08:21:29.185Z,65.54
2017-04-27T08:22:09.872Z,65.44
2017-04-27T08:22:50.449Z,65.35
2017-04-27T08:23:31.058Z,65.16
2017-04-27T08:24:11.663Z,64.78
2017-04-27T08:24:52.326Z,64.4
2017-04-27T08:25:32.977Z,64.14
2017-04-27T08:26:13.646Z,63.57
2017-04-27T08:26:54.281Z,63.76
2017-04-27T08:27:35.862Z,63.1
2017-04-27T08:28:16.533Z,62.72
2017-04-27T08:28:57.183Z,62.24
2017-04-27T08:29:37.848Z,62.43
2017-04-27T08:30:18.500Z,62.24
2017-04-27T08:30:59.118Z,62.53
2017-04-27T08:31:39.822Z,61.87
2017-04-27T08:32:20.484Z,62.24
2017-04-27T08:33:01.180Z,61.8
2017-04-27T08:33:41.791Z,61.8
2017-04-27T08:34:22.391Z,61.71
2017-04-27T08:35:04.133Z,61.71
2017-04-27T08:35:44.813Z,61.32
2017-04-27T08:36:25.398Z,60.94
2017-04-27T08:37:06.039Z,60.66
2017-04-27T08:37:46.628Z,60.47
2017-04-27T08:38:27.208Z,60.47
2017-04-27T08:39:07.816Z,60.18
2017-04-27T08:39:48.415Z,60.38
2017-04-27T08:40:29.010Z,60.47
2017-04-27T08:41:15.464Z,60.66
2017-04-27T08:41:56.116Z,60.66
2017-04-27T08:42:36.763Z,60.44
2017-04-27T08:43:17.422Z,60.91
2017-04-27T08:43:58.082Z,61.2
2017-04-27T08:44:38.716Z,60.91
2017-04-27T08:45:19.370Z,61.01
2017-04-27T08:46:01.051Z,61.39
2017-04-27T08:46:41.672Z,61.48
2017-04-27T08:47:22.330Z,61.2
2017-04-27T08:48:04.031Z,61.2
2017-04-27T08:48:44.710Z,60.85
2017-04-27T08:49:25.349Z,60.66
2017-04-27T08:50:05.997Z,60.75
2017-04-27T08:50:46.648Z,60.38
2017-04-27T08:51:27.222Z,60.66
2017-04-27T08:52:08.903Z,60.47
2017-04-27T08:52:49.530Z,60.57
2017-04-27T08:53:30.194Z,59.71
2017-04-27T08:54:10.877Z,59.42
2017-04-27T08:54:51.490Z,58.95
2017-04-27T08:55:32.146Z,58.47
2017-04-27T08:56:13.740Z,57.84
2017-04-27T08:56:54.388Z,58.12
2017-04-27T08:57:35.015Z,57.93
2017-04-27T08:58:15.562Z,57.36
2017-04-27T08:58:56.242Z,57.45
2017-04-27T08:59:36.930Z,57.17
2017-04-27T09:00:17.548Z,56.88
2017-04-27T09:00:58.198Z,57.07
2017-04-27T09:01:38.831Z,56.79
2017-04-27T09:02:19.388Z,56.44
2017-04-27T09:03:00.060Z,55.96
2017-04-27T09:03:40.708Z,56.15
2017-04-27T09:04:21.370Z,55.77
2017-04-27T09:05:02.042Z,55.96
2017-04-27T09:05:42.665Z,55.49
2017-04-27T09:06:23.310Z,55.1
2017-04-27T09:07:08.828Z,54.72
2017-04-27T09:07:49.436Z,54.91
2017-04-27T09:08:30.034Z,55.01
2017-04-27T09:09:10.612Z,55.29
2017-04-27T09:09:51.245Z,55.29
2017-04-27T09:10:31.841Z,54.82
2017-04-27T09:11:12.397Z,55.1
2017-04-27T09:11:52.947Z,54.91
2017-04-27T09:12:33.516Z,54.63
2017-04-27T09:13:14.082Z,55.01
2017-04-27T09:13:54.671Z,54.82
2017-04-27T09:14:35.298Z,55.2
2017-04-27T09:15:15.982Z,54.82
2017-04-27T09:15:56.606Z,54.44
2017-04-27T09:16:37.180Z,53.96
2017-04-27T09:17:17.897Z,54.03
2017-04-27T09:17:58.472Z,53.94
2017-04-27T09:18:39.137Z,53.55
2017-04-27T09:19:19.802Z,53.36
2017-04-27T09:20:01.401Z,52.7
2017-04-27T09:20:42.045Z,52.51
2017-04-27T09:21:22.644Z,52.51
2017-04-27T09:22:03.332Z,52.22
2017-04-27T09:22:43.953Z,51.56
2017-04-27T09:23:24.556Z,51.56
2017-04-27T09:24:05.206Z,51.18
2017-04-27T09:24:45.804Z,50.92
2017-04-27T09:25:26.385Z,50.73
2017-04-27T09:26:06.970Z,50.35
2017-04-27T09:26:47.615Z,50.06
2017-04-27T09:27:28.186Z,50.06
2017-04-27T09:28:08.818Z,49.96
2017-04-27T09:28:49.371Z,49.9
2017-04-27T09:29:29.944Z,50.09
2017-04-27T09:30:10.502Z,49.8
2017-04-27T09:30:51.185Z,49.82
2017-04-27T09:31:31.831Z,49.82
2017-04-27T09:32:12.375Z,49.82
2017-04-27T09:32:54.054Z,49.44
2017-04-27T09:33:34.713Z,50.01
2017-04-27T09:34:15.347Z,49.44
2017-04-27T09:34:55.994Z,49.16
2017-04-27T09:35:36.646Z,49.06
2017-04-27T09:36:18.319Z,49.16
2017-04-27T09:36:58.910Z,49.13
2017-04-27T09:37:39.527Z,49.23
2017-04-27T09:38:20.191Z,49.04
2017-04-27T09:39:00.799Z,48.85
2017-04-27T09:39:41.408Z,49.04
2017-04-27T09:40:22.049Z,49.13
2017-04-27T09:41:02.583Z,49.04
2017-04-27T09:41:43.281Z,48.92
2017-04-27T09:42:23.898Z,48.63
2017-04-27T09:43:04.571Z,48.25
2017-04-27T09:43:45.206Z,48.54
2017-04-27T09:44:25.852Z,48.27
2017-04-27T09:45:06.511Z,48.47
2017-04-27T09:45:47.166Z,48.18
2017-04-27T09:46:27.853Z,48.27
2017-04-27T09:47:08.489Z,48.18
2017-04-27T09:47:49.321Z,48.27
2017-04-27T09:48:29.895Z,48.35
2017-04-27T09:49:10.540Z,48.44
2017-04-27T09:49:51.187Z,48.35
2017-04-27T09:50:31.844Z,48.82
2017-04-27T09:51:12.491Z,48.54
2017-04-27T09:51:53.144Z,48.82
2017-04-27T09:52:33.790Z,49.01
2017-04-27T09:53:14.463Z,49.01
2017-04-27T09:53:55.113Z,49.11
2017-04-27T09:54:35.757Z,48.92
2017-04-27T09:55:16.632Z,48.99
2017-04-27T09:55:57.267Z,48.92
2017-04-27T09:56:37.840Z,48.9
2017-04-27T09:57:18.536Z,48.99
2017-04-27T09:57:59.260Z,48.99
2017-04-27T09:58:39.889Z,48.99
2017-04-27T09:59:20.545Z,49.2
2017-04-27T10:00:01.194Z,49.01
2017-04-27T10:00:41.869Z,48.44
2017-04-27T10:01:22.529Z,48.54
2017-04-27T10:02:03.160Z,48.44
2017-04-27T10:02:45.803Z,48.16
2017-04-27T10:03:26.514Z,47.87
2017-04-27T10:04:07.081Z,47.78
2017-04-27T10:04:47.710Z,47.49
2017-04-27T10:05:28.291Z,47.49
2017-04-27T10:06:14.906Z,47.49
2017-04-27T10:07:00.136Z,47.39
2017-04-27T10:07:40.897Z,47.71
2017-04-27T10:08:21.622Z,47.89
2017-04-27T10:09:02.416Z,48.47
2017-04-27T10:09:43.053Z,48.47
2017-04-27T10:10:23.791Z,47.99
2017-04-27T10:11:04.677Z,47.8
2017-04-27T10:11:45.318Z,47.8
2017-04-27T10:12:26.076Z,47.8
2017-04-27T10:13:06.814Z,47.52
2017-04-27T10:13:47.578Z,47.89
2017-04-27T10:14:28.325Z,47.97
2017-04-27T10:15:10.049Z,48.35
2017-04-27T10:15:50.774Z,48.44
2017-04-27T10:16:31.513Z,48.25
2017-04-27T10:17:12.318Z,48.35
2017-04-27T10:17:52.922Z,48.25
2017-04-27T10:18:33.659Z,47.58
2017-04-27T10:19:14.304Z,47.2
2017-04-27T10:19:54.999Z,47.11
2017-04-27T10:20:35.596Z,46.35
2017-04-27T10:21:16.416Z,46.37
2017-04-27T10:21:57.072Z,45.8
2017-04-27T10:22:37.708Z,45.89
2017-04-27T10:23:19.498Z,45.8
2017-04-27T10:24:00.200Z,44.94
2017-04-27T10:24:40.960Z,44.94
2017-04-27T10:25:21.740Z,44.56
2017-04-27T10:26:02.496Z,44.11
2017-04-27T10:26:43.228Z,43.82
2017-04-27T10:27:23.871Z,43.73
2017-04-27T10:28:04.578Z,43.54
2017-04-27T10:28:45.268Z,43.06
2017-04-27T10:29:25.898Z,43.44
2017-04-27T10:30:06.545Z,43.06
2017-04-27T10:30:47.211Z,42.77
2017-04-27T10:31:27.854Z,42.87
2017-04-27T10:32:08.513Z,42.58
2017-04-27T10:32:49.196Z,43.06
2017-04-27T10:33:29.790Z,43.06
2017-04-27T10:34:10.333Z,43.54
2017-04-27T10:34:51.047Z,43.35
2017-04-27T10:35:31.698Z,43.73
2017-04-27T10:36:14.354Z,43.63
2017-04-27T10:36:54.915Z,44.09
2017-04-27T10:37:35.573Z,43.82
2017-04-27T10:38:16.140Z,44.09
2017-04-27T10:38:57.817Z,44.66
2017-04-27T10:39:38.449Z,44.56
2017-04-27T10:40:20.142Z,44.85
2017-04-27T10:41:01.803Z,44.85
2017-04-27T10:41:43.497Z,45.04
2017-04-27T10:42:24.123Z,45.32
2017-04-27T10:43:04.769Z,45.51
2017-04-27T10:43:45.850Z,45.32
2017-04-27T10:44:26.502Z,45.99
2017-04-27T10:45:07.164Z,45.89
2017-04-27T10:45:48.831Z,45.99
2017-04-27T10:46:29.474Z,45.87
2017-04-27T10:47:12.115Z,45.89
2017-04-27T10:47:52.795Z,45.8
2017-04-27T10:48:33.368Z,45.8
2017-04-27T10:49:13.925Z,46.37
2017-04-27T10:49:55.513Z,46.09
2017-04-27T10:50:36.227Z,46.15
2017-04-27T10:51:16.890Z,46.25
2017-04-27T10:51:57.478Z,46.25
2017-04-27T10:52:38.161Z,46.15
2017-04-27T10:53:18.761Z,46.44
2017-04-27T10:53:59.405Z,46.35
2017-04-27T10:54:40.131Z,46.35
2017-04-27T10:55:20.704Z,46.35
2017-04-27T10:56:01.370Z,46.28
2017-04-27T10:56:42.009Z,46.09
2017-04-27T10:57:22.649Z,46.09
2017-04-27T10:58:03.317Z,46.28
2017-04-27T10:58:43.867Z,45.89
2017-04-27T10:59:24.496Z,45.8
2017-04-27T11:00:05.150Z,45.7
2017-04-27T11:00:45.709Z,45.99
2017-04-27T11:01:26.388Z,46.01
2017-04-27T11:02:08.018Z,45.06
2017-04-27T11:02:48.587Z,45.04
2017-04-27T11:03:30.278Z,44.85
2017-04-27T11:04:10.915Z,44.56
2017-04-27T11:04:51.581Z,44.56
2017-04-27T11:05:32.234Z,43.8
2017-04-27T11:06:12.876Z,44.37
2017-04-27T11:06:58.250Z,43.8
2017-04-27T11:07:39.859Z,43.8
2017-04-27T11:08:20.457Z,43.9
2017-04-27T11:09:01.018Z,43.91
2017-04-27T11:09:41.661Z,44.3
2017-04-27T11:10:22.336Z,44.75
2017-04-27T11:11:02.929Z,44.78
2017-04-27T11:11:43.519Z,44.49
2017-04-27T11:12:24.094Z,44.56
2017-04-27T11:13:04.736Z,44.66
2017-04-27T11:13:45.335Z,44.75
2017-04-27T11:14:25.917Z,43.99
2017-04-27T11:15:06.495Z,44.09
2017-04-27T11:15:47.143Z,44.27
2017-04-27T11:16:27.721Z,44.27
2017-04-27T11:17:08.460Z,44.09
2017-04-27T11:17:49.085Z,44.66
2017-04-27T11:18:29.674Z,44.56
2017-04-27T11:19:10.700Z,44.85
2017-04-27T11:19:51.312Z,44.75
2017-04-27T11:20:31.915Z,44.85
2017-04-27T11:21:12.473Z,44.75
2017-04-27T11:21:53.211Z,45.14
2017-04-27T11:22:33.875Z,45.42
2017-04-27T11:23:14.443Z,45.61
2017-04-27T11:23:55.090Z,45.89
2017-04-27T11:24:35.683Z,46.09
2017-04-27T11:25:16.276Z,45.99
2017-04-27T11:25:56.834Z,46.06
2017-04-27T11:26:37.450Z,46.37
2017-04-27T11:27:18.106Z,46.47
2017-04-27T11:27:58.706Z,46.94
2017-04-27T11:28:39.368Z,46.84
2017-04-27T11:29:20.019Z,46.84
2017-04-27T11:30:00.703Z,46.66
2017-04-27T11:30:41.320Z,46.28
2017-04-27T11:31:22.046Z,46.75
2017-04-27T11:32:02.730Z,46.47
2017-04-27T11:32:43.410Z,46.37
2017-04-27T11:33:24.009Z,46.47
2017-04-27T11:34:04.561Z,46.39
2017-04-27T11:34:45.265Z,46.49
2017-04-27T11:35:25.952Z,46.39
2017-04-27T11:36:06.624Z,45.73
2017-04-27T11:36:47.218Z,46.2
2017-04-27T11:37:27.850Z,46.04
2017-04-27T11:38:08.474Z,44.89
2017-04-27T11:38:49.049Z,45.08
2017-04-27T11:39:30.732Z,44.7
2017-04-27T11:40:11.360Z,44.51
2017-04-27T11:40:51.933Z,43.65
2017-04-27T11:41:32.596Z,43.56
2017-04-27T11:42:13.220Z,43.56
2017-04-27T11:42:53.793Z,43.08
2017-04-27T11:43:34.446Z,42.72
2017-04-27T11:44:15.072Z,42.72
2017-04-27T11:44:55.668Z,42.63
2017-04-27T11:45:36.296Z,41.86
2017-04-27T11:46:16.927Z,41.67
2017-04-27T11:46:57.481Z,40.63
2017-04-27T11:47:38.125Z,40.34
2017-04-27T11:48:18.834Z,39.48
2017-04-27T11:48:59.451Z,39.19
2017-04-27T11:49:41.139Z,39.19
2017-04-27T11:50:21.817Z,38.91
2017-04-27T11:51:02.439Z,38.91
2017-04-27T11:51:43.101Z,38.53
2017-04-27T11:52:24.243Z,38.71
2017-04-27T11:53:04.795Z,38.54
2017-04-27T11:53:45.377Z,38.54
2017-04-27T11:54:26.035Z,38.54
2017-04-27T11:55:06.672Z,38.54
2017-04-27T11:55:47.222Z,38.17
2017-04-27T11:56:27.854Z,38.26
2017-04-27T11:57:08.962Z,38.17
2017-04-27T11:57:49.701Z,38.35
2017-04-27T11:58:30.358Z,38.45
2017-04-27T11:59:11.037Z,38.37
2017-04-27T11:59:52.700Z,38.47
2017-04-27T12:00:33.393Z,38.47
2017-04-27T12:01:14.033Z,38.37
2017-04-27T12:01:54.640Z,38.18
2017-04-27T12:02:35.279Z,37.71
2017-04-27T12:03:15.941Z,37.61
2017-04-27T12:03:56.594Z,37.51
2017-04-27T12:04:37.251Z,37.42
2017-04-27T12:05:17.892Z,37.42
2017-04-27T12:05:58.714Z,37.32
2017-04-27T12:06:39.347Z,37.04
2017-04-27T12:07:20.023Z,36.46
2017-04-27T12:08:00.846Z,36.46
2017-04-27T12:08:41.373Z,36.37
2017-04-27T12:09:22.026Z,35.99
2017-04-27T12:10:02.711Z,36.08
2017-04-27T12:10:43.343Z,35.8
2017-04-27T12:11:23.994Z,36.18
2017-04-27T12:12:04.630Z,35.53
2017-04-27T12:12:45.301Z,35.33
2017-04-27T12:13:25.916Z,34.95
2017-04-27T12:14:06.481Z,34.95
2017-04-27T12:14:47.171Z,34.97
2017-04-27T12:15:27.780Z,34.4
2017-04-27T12:16:08.372Z,34.48
2017-04-27T12:16:48.998Z,34.57
2017-04-27T12:17:29.641Z,34.38
2017-04-27T12:18:10.605Z,34.48
2017-04-27T12:18:51.295Z,34.57
2017-04-27T12:19:31.907Z,34.86
2017-04-27T12:20:12.482Z,34.84
2017-04-27T12:20:53.133Z,35.22
2017-04-27T12:21:33.762Z,34.82
2017-04-27T12:22:14.325Z,35.3
2017-04-27T12:22:55.000Z,35.49
2017-04-27T12:23:35.632Z,36.16
2017-04-27T12:24:16.306Z,35.78
2017-04-27T12:24:56.941Z,35.87
2017-04-27T12:25:37.607Z,35.97
2017-04-27T12:26:18.242Z,35.97
2017-04-27T12:26:58.885Z,35.87
2017-04-27T12:27:39.553Z,35.68
2017-04-27T12:28:20.215Z,35.78
2017-04-27T12:29:00.877Z,36.07
2017-04-27T12:29:41.505Z,36.16
2017-04-27T12:30:22.190Z,36.25
2017-04-27T12:31:02.815Z,36.16
2017-04-27T12:31:43.471Z,36.07
2017-04-27T12:32:24.136Z,35.78
2017-04-27T12:33:04.771Z,35.59
2017-04-27T12:33:45.444Z,36.07
2017-04-27T12:34:26.112Z,36.25
2017-04-27T12:35:06.746Z,35.87
2017-04-27T12:35:47.373Z,35.78
2017-04-27T12:36:28.117Z,36.35
2017-04-27T12:37:08.874Z,36.44
2017-04-27T12:37:49.576Z,36.44
2017-04-27T12:38:30.216Z,37.02
